sensor_id;sensor_type;location;lat;lon;timestamp;pressure;altitude;pressure_sealevel;temperature;humidity
59789;BME280;47353;51.614;5.530;2024-02-14T00:02:18;101269.22;;;7.93;100.00
59789;BME280;47353;51.614;5.530;2024-02-14T00:04:43;101272.09;;;7.98;100.00
59789;BME280;47353;51.614;5.530;2024-02-14T00:07:09;101276.50;;;7.99;100.00
59789;BME280;47353;51.614;5.530;2024-02-14T00:09:34;101272.19;;;7.86;100.00
59789;BME280;47353;51.614;5.530;2024-02-14T00:12:00;101267.81;;;7.90;100.00
59789;BME280;47353;51.614;5.530;2024-02-14T00:14:26;101267.16;;;8.00;100.00
59789;BME280;47353;51.614;5.530;2024-02-14T00:16:51;101268.84;;;8.01;100.00
59789;BME280;47353;51.614;5.530;2024-02-14T00:19:16;101271.69;;;7.89;100.00
59789;BME280;47353;51.614;5.530;2024-02-14T00:21:42;101264.56;;;8.10;100.00
59789;BME280;47353;51.614;5.530;2024-02-14T00:24:07;101258.97;;;7.88;100.00
59789;BME280;47353;51.614;5.530;2024-02-14T00:26:33;101265.66;;;8.09;100.00
59789;BME280;47353;51.614;5.530;2024-02-14T00:28:58;101273.03;;;8.20;100.00
59789;BME280;47353;51.614;5.530;2024-02-14T00:31:24;101247.09;;;8.21;100.00
59789;BME280;47353;51.614;5.530;2024-02-14T00:33:49;101249.13;;;8.09;100.00
59789;BME280;47353;51.614;5.530;2024-02-14T00:36:16;101241.47;;;8.27;100.00
59789;BME280;47353;51.614;5.530;2024-02-14T00:38:41;101251.28;;;8.07;100.00
59789;BME280;47353;51.614;5.530;2024-02-14T00:41:06;101247.97;;;8.21;100.00
59789;BME280;47353;51.614;5.530;2024-02-14T00:43:32;101254.53;;;8.20;100.00
59789;BME280;47353;51.614;5.530;2024-02-14T00:45:57;101250.38;;;8.34;100.00
59789;BME280;47353;51.614;5.530;2024-02-14T00:48:23;101264.16;;;8.18;100.00
59789;BME280;47353;51.614;5.530;2024-02-14T00:50:48;101254.59;;;8.37;100.00
59789;BME280;47353;51.614;5.530;2024-02-14T00:53:14;101251.38;;;8.12;100.00
59789;BME280;47353;51.614;5.530;2024-02-14T00:55:39;101249.38;;;8.07;100.00
59789;BME280;47353;51.614;5.530;2024-02-14T00:58:05;101249.78;;;8.16;100.00
59789;BME280;47353;51.614;5.530;2024-02-14T01:00:30;101244.13;;;8.22;100.00
59789;BME280;47353;51.614;5.530;2024-02-14T01:02:57;101236.00;;;8.16;100.00
59789;BME280;47353;51.614;5.530;2024-02-14T01:05:23;101242.34;;;8.33;100.00
59789;BME280;47353;51.614;5.530;2024-02-14T01:07:48;101250.06;;;8.31;100.00
59789;BME280;47353;51.614;5.530;2024-02-14T01:10:14;101252.88;;;8.36;100.00
59789;BME280;47353;51.614;5.530;2024-02-14T01:12:39;101246.81;;;8.34;100.00
59789;BME280;47353;51.614;5.530;2024-02-14T01:15:05;101237.88;;;8.43;100.00
59789;BME280;47353;51.614;5.530;2024-02-14T01:17:31;101249.97;;;8.42;100.00
59789;BME280;47353;51.614;5.530;2024-02-14T01:19:56;101242.34;;;8.50;100.00
59789;BME280;47353;51.614;5.530;2024-02-14T01:22:23;101247.47;;;8.41;100.00
59789;BME280;47353;51.614;5.530;2024-02-14T01:24:49;101253.13;;;8.34;100.00
59789;BME280;47353;51.614;5.530;2024-02-14T01:27:14;101249.38;;;8.57;100.00
59789;BME280;47353;51.614;5.530;2024-02-14T01:29:40;101253.41;;;8.50;100.00
59789;BME280;47353;51.614;5.530;2024-02-14T01:32:05;101253.28;;;8.61;100.00
59789;BME280;47353;51.614;5.530;2024-02-14T01:34:32;101258.44;;;8.58;100.00
59789;BME280;47353;51.614;5.530;2024-02-14T01:36:57;101249.13;;;8.80;100.00
59789;BME280;47353;51.614;5.530;2024-02-14T01:39:23;101252.16;;;8.62;100.00
59789;BME280;47353;51.614;5.530;2024-02-14T01:41:48;101252.38;;;8.56;100.00
59789;BME280;47353;51.614;5.530;2024-02-14T01:44:15;101265.41;;;8.60;100.00
59789;BME280;47353;51.614;5.530;2024-02-14T01:46:44;101244.19;;;8.82;100.00
59789;BME280;47353;51.614;5.530;2024-02-14T01:49:13;101253.34;;;8.66;100.00
59789;BME280;47353;51.614;5.530;2024-02-14T01:51:43;101237.59;;;8.83;100.00
59789;BME280;47353;51.614;5.530;2024-02-14T01:54:11;101250.97;;;8.75;100.00
59789;BME280;47353;51.614;5.530;2024-02-14T01:56:38;101250.03;;;8.86;100.00
59789;BME280;47353;51.614;5.530;2024-02-14T01:59:04;101249.50;;;8.89;100.00
59789;BME280;47353;51.614;5.530;2024-02-14T02:01:31;101258.50;;;8.79;100.00
59789;BME280;47353;51.614;5.530;2024-02-14T02:03:57;101255.09;;;8.72;100.00
59789;BME280;47353;51.614;5.530;2024-02-14T02:06:23;101260.03;;;8.92;100.00
59789;BME280;47353;51.614;5.530;2024-02-14T02:08:51;101253.47;;;8.76;100.00
59789;BME280;47353;51.614;5.530;2024-02-14T02:11:17;101239.06;;;9.12;100.00
59789;BME280;47353;51.614;5.530;2024-02-14T02:13:42;101236.63;;;8.94;100.00
59789;BME280;47353;51.614;5.530;2024-02-14T02:16:08;101257.28;;;8.92;100.00
59789;BME280;47353;51.614;5.530;2024-02-14T02:18:34;101256.50;;;8.75;100.00
59789;BME280;47353;51.614;5.530;2024-02-14T02:20:59;101251.50;;;8.72;100.00
59789;BME280;47353;51.614;5.530;2024-02-14T02:23:25;101256.50;;;8.75;100.00
59789;BME280;47353;51.614;5.530;2024-02-14T02:25:50;101272.28;;;8.79;100.00
59789;BME280;47353;51.614;5.530;2024-02-14T02:28:16;101255.69;;;8.74;100.00
59789;BME280;47353;51.614;5.530;2024-02-14T02:30:42;101252.91;;;8.74;100.00
59789;BME280;47353;51.614;5.530;2024-02-14T02:33:07;101249.56;;;8.72;100.00
59789;BME280;47353;51.614;5.530;2024-02-14T02:35:34;101258.28;;;8.64;100.00
59789;BME280;47353;51.614;5.530;2024-02-14T02:38:00;101250.63;;;8.88;100.00
59789;BME280;47353;51.614;5.530;2024-02-14T02:40:25;101243.75;;;8.90;100.00
59789;BME280;47353;51.614;5.530;2024-02-14T02:42:53;101254.16;;;8.83;100.00
59789;BME280;47353;51.614;5.530;2024-02-14T02:45:18;101255.69;;;8.74;100.00
59789;BME280;47353;51.614;5.530;2024-02-14T02:47:44;101251.19;;;8.68;100.00
59789;BME280;47353;51.614;5.530;2024-02-14T02:50:09;101245.19;;;8.76;100.00
59789;BME280;47353;51.614;5.530;2024-02-14T02:52:35;101244.25;;;8.87;100.00
59789;BME280;47353;51.614;5.530;2024-02-14T02:55:00;101238.47;;;8.89;100.00
59789;BME280;47353;51.614;5.530;2024-02-14T02:57:27;101245.66;;;8.68;100.00
59789;BME280;47353;51.614;5.530;2024-02-14T02:59:53;101220.09;;;8.78;100.00
59789;BME280;47353;51.614;5.530;2024-02-14T03:02:19;101247.72;;;8.99;100.00
59789;BME280;47353;51.614;5.530;2024-02-14T03:04:45;101247.06;;;8.71;100.00
59789;BME280;47353;51.614;5.530;2024-02-14T03:07:12;101247.00;;;8.87;100.00
59789;BME280;47353;51.614;5.530;2024-02-14T03:09:37;101244.91;;;8.73;100.00
59789;BME280;47353;51.614;5.530;2024-02-14T03:12:03;101236.03;;;8.92;100.00
59789;BME280;47353;51.614;5.530;2024-02-14T03:14:30;101245.69;;;8.90;100.00
59789;BME280;47353;51.614;5.530;2024-02-14T03:17:00;101250.94;;;8.91;100.00
59789;BME280;47353;51.614;5.530;2024-02-14T03:19:26;101250.19;;;8.96;100.00
59789;BME280;47353;51.614;5.530;2024-02-14T03:21:53;101269.25;;;8.97;100.00
59789;BME280;47353;51.614;5.530;2024-02-14T03:24:19;101251.66;;;9.03;100.00
59789;BME280;47353;51.614;5.530;2024-02-14T03:26:44;101245.69;;;8.90;100.00
59789;BME280;47353;51.614;5.530;2024-02-14T03:29:10;101255.88;;;9.11;100.00
59789;BME280;47353;51.614;5.530;2024-02-14T03:31:35;101266.59;;;9.07;100.00
59789;BME280;47353;51.614;5.530;2024-02-14T03:34:01;101266.09;;;9.10;100.00
59789;BME280;47353;51.614;5.530;2024-02-14T03:36:26;101257.88;;;9.15;100.00
59789;BME280;47353;51.614;5.530;2024-02-14T03:38:58;101253.47;;;9.14;100.00
59789;BME280;47353;51.614;5.530;2024-02-14T03:41:25;101268.72;;;9.22;100.00
59789;BME280;47353;51.614;5.530;2024-02-14T03:43:52;101278.41;;;9.03;100.00
59789;BME280;47353;51.614;5.530;2024-02-14T03:46:19;101267.25;;;9.14;100.00
59789;BME280;47353;51.614;5.530;2024-02-14T03:48:46;101265.28;;;9.10;100.00
59789;BME280;47353;51.614;5.530;2024-02-14T03:51:13;101264.53;;;9.19;100.00
59789;BME280;47353;51.614;5.530;2024-02-14T03:53:38;101263.31;;;9.32;100.00
59789;BME280;47353;51.614;5.530;2024-02-14T03:56:04;101269.06;;;9.25;100.00
59789;BME280;47353;51.614;5.530;2024-02-14T03:58:29;101290.91;;;9.27;100.00
59789;BME280;47353;51.614;5.530;2024-02-14T04:00:55;101285.94;;;9.29;100.00
59789;BME280;47353;51.614;5.530;2024-02-14T04:03:20;101266.59;;;9.29;100.00
59789;BME280;47353;51.614;5.530;2024-02-14T04:05:46;101269.88;;;9.26;100.00
59789;BME280;47353;51.614;5.530;2024-02-14T04:08:12;101271.44;;;9.17;100.00
59789;BME280;47353;51.614;5.530;2024-02-14T04:10:38;101290.31;;;9.25;100.00
59789;BME280;47353;51.614;5.530;2024-02-14T04:13:04;101272.78;;;9.36;100.00
59789;BME280;47353;51.614;5.530;2024-02-14T04:15:31;101290.06;;;9.26;100.00
59789;BME280;47353;51.614;5.530;2024-02-14T04:17:56;101287.72;;;9.40;100.00
59789;BME280;47353;51.614;5.530;2024-02-14T04:20:21;101280.16;;;9.30;100.00
59789;BME280;47353;51.614;5.530;2024-02-14T04:22:47;101281.88;;;9.36;100.00
59789;BME280;47353;51.614;5.530;2024-02-14T04:25:12;101289.59;;;9.34;100.00
59789;BME280;47353;51.614;5.530;2024-02-14T04:27:38;101295.03;;;9.51;100.00
59789;BME280;47353;51.614;5.530;2024-02-14T04:30:04;101296.41;;;9.48;100.00
59789;BME280;47353;51.614;5.530;2024-02-14T04:32:30;101294.63;;;9.37;100.00
59789;BME280;47353;51.614;5.530;2024-02-14T04:34:55;101306.75;;;9.36;100.00
59789;BME280;47353;51.614;5.530;2024-02-14T04:37:21;101299.88;;;9.39;100.00
59789;BME280;47353;51.614;5.530;2024-02-14T04:39:47;101310.97;;;9.44;100.00
59789;BME280;47353;51.614;5.530;2024-02-14T04:42:12;101289.78;;;9.49;100.00
59789;BME280;47353;51.614;5.530;2024-02-14T04:44:38;101310.16;;;9.22;100.00
59789;BME280;47353;51.614;5.530;2024-02-14T04:47:04;101309.75;;;9.35;100.00
59789;BME280;47353;51.614;5.530;2024-02-14T04:49:30;101302.66;;;9.39;100.00
59789;BME280;47353;51.614;5.530;2024-02-14T04:51:56;101299.03;;;9.38;100.00
59789;BME280;47353;51.614;5.530;2024-02-14T04:54:21;101308.97;;;9.39;100.00
59789;BME280;47353;51.614;5.530;2024-02-14T04:56:47;101313.81;;;9.49;100.00
59789;BME280;47353;51.614;5.530;2024-02-14T04:59:12;101313.81;;;9.49;100.00
59789;BME280;47353;51.614;5.530;2024-02-14T05:01:38;101312.47;;;9.30;100.00
59789;BME280;47353;51.614;5.530;2024-02-14T05:04:05;101309.97;;;9.50;100.00
59789;BME280;47353;51.614;5.530;2024-02-14T05:06:31;101318.38;;;9.38;100.00
59789;BME280;47353;51.614;5.530;2024-02-14T05:08:56;101316.66;;;9.32;100.00
59789;BME280;47353;51.614;5.530;2024-02-14T05:11:22;101310.28;;;9.32;100.00
59789;BME280;47353;51.614;5.530;2024-02-14T05:13:47;101325.56;;;9.39;100.00
59789;BME280;47353;51.614;5.530;2024-02-14T05:16:18;101325.00;;;9.37;100.00
59789;BME280;47353;51.614;5.530;2024-02-14T05:18:43;101320.09;;;9.44;100.00
59789;BME280;47353;51.614;5.530;2024-02-14T05:21:08;101324.09;;;9.32;100.00
59789;BME280;47353;51.614;5.530;2024-02-14T05:23:34;101328.13;;;9.46;100.00
59789;BME280;47353;51.614;5.530;2024-02-14T05:26:02;101333.66;;;9.46;100.00
59789;BME280;47353;51.614;5.530;2024-02-14T05:28:28;101318.72;;;9.42;100.00
59789;BME280;47353;51.614;5.530;2024-02-14T05:30:54;101329.88;;;9.30;100.00
59789;BME280;47353;51.614;5.530;2024-02-14T05:33:19;101319.84;;;9.24;100.00
59789;BME280;47353;51.614;5.530;2024-02-14T05:35:48;101315.53;;;9.33;100.00
59789;BME280;47353;51.614;5.530;2024-02-14T05:38:13;101321.72;;;9.19;100.00
59789;BME280;47353;51.614;5.530;2024-02-14T05:40:40;101330.66;;;9.26;100.00
59789;BME280;47353;51.614;5.530;2024-02-14T05:43:05;101327.06;;;9.47;100.00
59789;BME280;47353;51.614;5.530;2024-02-14T05:45:32;101325.25;;;9.36;100.00
59789;BME280;47353;51.614;5.530;2024-02-14T05:47:58;101330.28;;;9.17;100.00
59789;BME280;47353;51.614;5.530;2024-02-14T05:50:23;101334.75;;;9.23;100.00
59789;BME280;47353;51.614;5.530;2024-02-14T05:52:49;101330.56;;;9.21;100.00
59789;BME280;47353;51.614;5.530;2024-02-14T05:55:14;101333.31;;;9.21;100.00
59789;BME280;47353;51.614;5.530;2024-02-14T05:57:40;101331.94;;;9.40;100.00
59789;BME280;47353;51.614;5.530;2024-02-14T06:00:06;101331.22;;;9.28;100.00
59789;BME280;47353;51.614;5.530;2024-02-14T06:02:32;101332.06;;;9.28;100.00
59789;BME280;47353;51.614;5.530;2024-02-14T06:04:57;101331.09;;;9.39;100.00
59789;BME280;47353;51.614;5.530;2024-02-14T06:07:23;101330.31;;;9.44;100.00
59789;BME280;47353;51.614;5.530;2024-02-14T06:09:48;101339.88;;;9.36;100.00
59789;BME280;47353;51.614;5.530;2024-02-14T06:12:14;101337.78;;;9.22;100.00
59789;BME280;47353;51.614;5.530;2024-02-14T06:14:39;101343.63;;;9.25;100.00
59789;BME280;47353;51.614;5.530;2024-02-14T06:17:04;101346.41;;;9.25;100.00
59789;BME280;47353;51.614;5.530;2024-02-14T06:19:30;101354.47;;;9.32;100.00
59789;BME280;47353;51.614;5.530;2024-02-14T06:21:57;101352.03;;;9.14;100.00
59789;BME280;47353;51.614;5.530;2024-02-14T06:24:24;101363.41;;;9.17;100.00
59789;BME280;47353;51.614;5.530;2024-02-14T06:26:49;101368.84;;;9.12;100.00
59789;BME280;47353;51.614;5.530;2024-02-14T06:29:15;101362.47;;;9.28;100.00
59789;BME280;47353;51.614;5.530;2024-02-14T06:31:40;101360.25;;;9.30;100.00
59789;BME280;47353;51.614;5.530;2024-02-14T06:34:06;101367.81;;;9.18;100.00
59789;BME280;47353;51.614;5.530;2024-02-14T06:36:33;101377.84;;;9.24;100.00
59789;BME280;47353;51.614;5.530;2024-02-14T06:38:58;101371.00;;;9.27;100.00
59789;BME280;47353;51.614;5.530;2024-02-14T06:41:24;101372.66;;;9.28;100.00
59789;BME280;47353;51.614;5.530;2024-02-14T06:43:49;101378.56;;;9.36;100.00
59789;BME280;47353;51.614;5.530;2024-02-14T06:46:15;101378.69;;;9.25;100.00
59789;BME280;47353;51.614;5.530;2024-02-14T06:48:40;101383.06;;;9.42;100.00
59789;BME280;47353;51.614;5.530;2024-02-14T06:51:07;101385.13;;;9.30;100.00
59789;BME280;47353;51.614;5.530;2024-02-14T06:53:32;101389.81;;;9.30;100.00
59789;BME280;47353;51.614;5.530;2024-02-14T06:55:58;101388.94;;;9.46;100.00
59789;BME280;47353;51.614;5.530;2024-02-14T06:58:23;101387.38;;;9.55;100.00
59789;BME280;47353;51.614;5.530;2024-02-14T07:00:49;101388.41;;;9.49;100.00
59789;BME280;47353;51.614;5.530;2024-02-14T07:03:15;101396.78;;;9.54;100.00
59789;BME280;47353;51.614;5.530;2024-02-14T07:05:40;101389.25;;;9.49;100.00
59789;BME280;47353;51.614;5.530;2024-02-14T07:08:07;101398.59;;;9.65;100.00
59789;BME280;47353;51.614;5.530;2024-02-14T07:10:32;101395.66;;;9.55;100.00
59789;BME280;47353;51.614;5.530;2024-02-14T07:12:58;101387.25;;;9.45;100.00
59789;BME280;47353;51.614;5.530;2024-02-14T07:15:23;101396.78;;;9.54;100.00
59789;BME280;47353;51.614;5.530;2024-02-14T07:17:53;101403.97;;;9.55;100.00
59789;BME280;47353;51.614;5.530;2024-02-14T07:20:19;101399.59;;;9.59;100.00
59789;BME280;47353;51.614;5.530;2024-02-14T07:22:45;101397.09;;;9.57;100.00
59789;BME280;47353;51.614;5.530;2024-02-14T07:25:13;101407.25;;;9.52;100.00
59789;BME280;47353;51.614;5.530;2024-02-14T07:27:38;101403.41;;;9.53;100.00
59789;BME280;47353;51.614;5.530;2024-02-14T07:30:04;101398.66;;;9.48;100.00
59789;BME280;47353;51.614;5.530;2024-02-14T07:32:30;101408.97;;;9.58;100.00
59789;BME280;47353;51.614;5.530;2024-02-14T07:34:56;101408.19;;;9.62;100.00
59789;BME280;47353;51.614;5.530;2024-02-14T07:37:22;101399.72;;;9.47;100.00
59789;BME280;47353;51.614;5.530;2024-02-14T07:39:47;101402.66;;;9.41;100.00
59789;BME280;47353;51.614;5.530;2024-02-14T07:42:13;101401.72;;;9.52;100.00
59789;BME280;47353;51.614;5.530;2024-02-14T07:44:38;101398.84;;;9.42;100.00
59789;BME280;47353;51.614;5.530;2024-02-14T07:47:04;101401.59;;;9.42;100.00
59789;BME280;47353;51.614;5.530;2024-02-14T07:49:30;101398.69;;;9.53;100.00
59789;BME280;47353;51.614;5.530;2024-02-14T07:51:55;101407.94;;;9.42;100.00
59789;BME280;47353;51.614;5.530;2024-02-14T07:54:21;101404.81;;;9.55;100.00
59789;BME280;47353;51.614;5.530;2024-02-14T07:56:46;101416.06;;;9.70;100.00
59789;BME280;47353;51.614;5.530;2024-02-14T07:59:12;101414.25;;;9.59;100.00
59789;BME280;47353;51.614;5.530;2024-02-14T08:01:37;101407.25;;;9.73;100.00
59789;BME280;47353;51.614;5.530;2024-02-14T08:04:03;101413.81;;;9.67;100.00
59789;BME280;47353;51.614;5.530;2024-02-14T08:06:29;101409.63;;;9.65;100.00
59789;BME280;47353;51.614;5.530;2024-02-14T08:08:54;101422.25;;;9.77;100.00
59789;BME280;47353;51.614;5.530;2024-02-14T08:11:24;101422.53;;;9.81;100.00
59789;BME280;47353;51.614;5.530;2024-02-14T08:13:50;101422.59;;;9.86;100.00
59789;BME280;47353;51.614;5.530;2024-02-14T08:16:16;101423.13;;;9.83;100.00
59789;BME280;47353;51.614;5.530;2024-02-14T08:18:42;101434.25;;;9.66;100.00
59789;BME280;47353;51.614;5.530;2024-02-14T08:21:09;101433.59;;;9.81;100.00
59789;BME280;47353;51.614;5.530;2024-02-14T08:23:35;101433.28;;;9.77;100.00
59789;BME280;47353;51.614;5.530;2024-02-14T08:26:01;101431.16;;;9.63;100.00
59789;BME280;47353;51.614;5.530;2024-02-14T08:28:26;101425.03;;;9.61;100.00
59789;BME280;47353;51.614;5.530;2024-02-14T08:30:52;101421.06;;;9.73;100.00
59789;BME280;47353;51.614;5.530;2024-02-14T08:33:17;101429.94;;;9.75;100.00
59789;BME280;47353;51.614;5.530;2024-02-14T08:35:43;101424.16;;;9.77;100.00
59789;BME280;47353;51.614;5.530;2024-02-14T08:38:08;101427.88;;;9.87;100.00
59789;BME280;47353;51.614;5.530;2024-02-14T08:40:34;101428.22;;;9.91;100.00
59789;BME280;47353;51.614;5.530;2024-02-14T08:43:00;101430.38;;;9.89;100.00
59789;BME280;47353;51.614;5.530;2024-02-14T08:45:26;101438.69;;;10.10;100.00
59789;BME280;47353;51.614;5.530;2024-02-14T08:47:54;101443.19;;;9.95;100.00
59789;BME280;47353;51.614;5.530;2024-02-14T08:50:19;101439.78;;;9.88;100.00
59789;BME280;47353;51.614;5.530;2024-02-14T08:52:45;101433.22;;;9.94;100.00
59789;BME280;47353;51.614;5.530;2024-02-14T08:55:10;101436.50;;;9.91;100.00
59789;BME280;47353;51.614;5.530;2024-02-14T08:57:40;101433.81;;;9.96;100.00
59789;BME280;47353;51.614;5.530;2024-02-14T09:00:06;101441.31;;;10.00;100.00
59789;BME280;47353;51.614;5.530;2024-02-14T09:02:32;101434.53;;;10.08;100.00
59789;BME280;47353;51.614;5.530;2024-02-14T09:05:00;101428.00;;;10.19;100.00
59789;BME280;47353;51.614;5.530;2024-02-14T09:07:26;101441.00;;;10.19;100.00
59789;BME280;47353;51.614;5.530;2024-02-14T09:09:52;101445.13;;;10.43;100.00
59789;BME280;47353;51.614;5.530;2024-02-14T09:12:17;101438.50;;;10.44;100.00
59789;BME280;47353;51.614;5.530;2024-02-14T09:14:43;101446.59;;;10.50;100.00
59789;BME280;47353;51.614;5.530;2024-02-14T09:17:08;101443.34;;;10.58;100.00
59789;BME280;47353;51.614;5.530;2024-02-14T09:19:35;101455.88;;;10.66;100.00
59789;BME280;47353;51.614;5.530;2024-02-14T09:22:00;101454.66;;;10.52;100.00
59789;BME280;47353;51.614;5.530;2024-02-14T09:24:25;101459.22;;;10.68;100.00
59789;BME280;47353;51.614;5.530;2024-02-14T09:26:51;101468.38;;;10.42;100.00
59789;BME280;47353;51.614;5.530;2024-02-14T09:29:16;101460.59;;;10.65;100.00
59789;BME280;47353;51.614;5.530;2024-02-14T09:31:42;101466.72;;;10.72;100.00
59789;BME280;47353;51.614;5.530;2024-02-14T09:34:07;101465.91;;;10.72;100.00
59789;BME280;47353;51.614;5.530;2024-02-14T09:36:33;101474.22;;;10.72;100.00
59789;BME280;47353;51.614;5.530;2024-02-14T09:38:58;101466.88;;;10.87;100.00
59789;BME280;47353;51.614;5.530;2024-02-14T09:41:37;101471.22;;;10.78;100.00
59789;BME280;47353;51.614;5.530;2024-02-14T09:44:05;101471.41;;;10.67;100.00
59789;BME280;47353;51.614;5.530;2024-02-14T09:46:31;101467.84;;;10.71;100.00
59789;BME280;47353;51.614;5.530;2024-02-14T09:48:58;101465.69;;;10.78;100.00
59789;BME280;47353;51.614;5.530;2024-02-14T09:51:28;101473.13;;;10.73;100.00
59789;BME280;47353;51.614;5.530;2024-02-14T09:53:54;101478.63;;;10.99;100.00
59789;BME280;47353;51.614;5.530;2024-02-14T09:56:21;101482.03;;;10.80;100.00
59789;BME280;47353;51.614;5.530;2024-02-14T09:58:50;101477.47;;;10.95;100.00
59789;BME280;47353;51.614;5.530;2024-02-14T10:01:21;101477.72;;;10.94;100.00
59789;BME280;47353;51.614;5.530;2024-02-14T10:03:51;101480.13;;;11.17;100.00
59789;BME280;47353;51.614;5.530;2024-02-14T10:06:19;101480.50;;;11.25;100.00
59789;BME280;47353;51.614;5.530;2024-02-14T10:08:48;101474.09;;;11.25;100.00
59789;BME280;47353;51.614;5.530;2024-02-14T10:11:14;101494.44;;;11.04;100.00
59789;BME280;47353;51.614;5.530;2024-02-14T10:13:45;101476.81;;;10.83;100.00
59789;BME280;47353;51.614;5.530;2024-02-14T10:16:12;101493.34;;;11.05;100.00
59789;BME280;47353;51.614;5.530;2024-02-14T10:18:40;101488.00;;;10.93;100.00
59789;BME280;47353;51.614;5.530;2024-02-14T10:21:06;101478.91;;;11.03;100.00
59789;BME280;47353;51.614;5.530;2024-02-14T10:23:31;101488.16;;;10.82;100.00
59789;BME280;47353;51.614;5.530;2024-02-14T10:25:58;101498.53;;;10.96;100.00
59789;BME280;47353;51.614;5.530;2024-02-14T10:28:24;101499.53;;;10.85;100.00
59789;BME280;47353;51.614;5.530;2024-02-14T10:30:49;101503.25;;;10.96;100.00
59789;BME280;47353;51.614;5.530;2024-02-14T10:33:16;101500.47;;;10.96;100.00
59789;BME280;47353;51.614;5.530;2024-02-14T10:35:42;101508.84;;;11.01;100.00
59789;BME280;47353;51.614;5.530;2024-02-14T10:38:08;101502.84;;;11.14;100.00
59789;BME280;47353;51.614;5.530;2024-02-14T10:40:35;101508.56;;;11.02;100.00
59789;BME280;47353;51.614;5.530;2024-02-14T10:43:01;101514.66;;;11.04;100.00
59789;BME280;47353;51.614;5.530;2024-02-14T10:45:27;101499.72;;;11.05;100.00
59789;BME280;47353;51.614;5.530;2024-02-14T10:47:53;101494.78;;;11.12;100.00
59789;BME280;47353;51.614;5.530;2024-02-14T10:50:24;101503.38;;;11.11;100.00
59789;BME280;47353;51.614;5.530;2024-02-14T10:52:52;101508.00;;;11.37;100.00
59789;BME280;47353;51.614;5.530;2024-02-14T10:55:20;101510.19;;;11.30;100.00
59789;BME280;47353;51.614;5.530;2024-02-14T10:57:53;101508.38;;;11.14;100.00
59789;BME280;47353;51.614;5.530;2024-02-14T11:00:20;101501.78;;;11.20;100.00
59789;BME280;47353;51.614;5.530;2024-02-14T11:02:47;101506.56;;;11.29;100.00
59789;BME280;47353;51.614;5.530;2024-02-14T11:05:14;101498.72;;;11.21;100.00
59789;BME280;47353;51.614;5.530;2024-02-14T11:07:46;101500.84;;;11.09;100.00
59789;BME280;47353;51.614;5.530;2024-02-14T11:10:16;101506.56;;;11.29;100.00
59789;BME280;47353;51.614;5.530;2024-02-14T11:12:42;101500.97;;;11.24;100.00
59789;BME280;47353;51.614;5.530;2024-02-14T11:17:41;101487.25;;;11.44;100.00
59789;BME280;47353;51.614;5.530;2024-02-14T11:20:31;101491.47;;;11.47;100.00
59789;BME280;47353;51.614;5.530;2024-02-14T11:23:00;101479.06;;;11.59;100.00
59789;BME280;47353;51.614;5.530;2024-02-14T11:25:29;101494.00;;;11.53;100.00
59789;BME280;47353;51.614;5.530;2024-02-14T11:27:55;101486.09;;;11.35;100.00
59789;BME280;47353;51.614;5.530;2024-02-14T11:30:34;101483.03;;;11.32;100.00
59789;BME280;47353;51.614;5.530;2024-02-14T11:33:19;101487.53;;;11.38;100.00
59789;BME280;47353;51.614;5.530;2024-02-14T11:35:50;101482.19;;;11.31;100.00
59789;BME280;47353;51.614;5.530;2024-02-14T11:38:17;101471.38;;;11.30;100.00
59789;BME280;47353;51.614;5.530;2024-02-14T11:40:43;101486.31;;;11.24;100.00
59789;BME280;47353;51.614;5.530;2024-02-14T11:43:15;101491.41;;;11.42;100.00
59789;BME280;47353;51.614;5.530;2024-02-14T11:45:43;101498.34;;;11.39;100.00
59789;BME280;47353;51.614;5.530;2024-02-14T11:48:13;101476.56;;;11.16;100.00
59789;BME280;47353;51.614;5.530;2024-02-14T11:50:43;101484.16;;;11.36;100.00
59789;BME280;47353;51.614;5.530;2024-02-14T11:53:12;101484.16;;;11.36;100.00
59789;BME280;47353;51.614;5.530;2024-02-14T11:55:39;101479.06;;;11.18;100.00
59789;BME280;47353;51.614;5.530;2024-02-14T11:58:08;101471.81;;;11.17;100.00
59789;BME280;47353;51.614;5.530;2024-02-14T12:00:41;101466.84;;;11.19;100.00
59789;BME280;47353;51.614;5.530;2024-02-14T12:03:08;101467.09;;;11.12;100.00
59789;BME280;47353;51.614;5.530;2024-02-14T12:05:35;101458.00;;;11.22;100.00
59789;BME280;47353;51.614;5.530;2024-02-14T12:08:02;101469.69;;;11.24;100.00
59789;BME280;47353;51.614;5.530;2024-02-14T12:10:31;101471.00;;;11.16;100.00
59789;BME280;47353;51.614;5.530;2024-02-14T12:12:56;101468.50;;;11.15;100.00
59789;BME280;47353;51.614;5.530;2024-02-14T12:15:22;101468.19;;;11.11;100.00
59789;BME280;47353;51.614;5.530;2024-02-14T12:17:47;101464.31;;;11.12;100.00
59789;BME280;47353;51.614;5.530;2024-02-14T12:20:14;101472.88;;;11.11;100.00
59789;BME280;47353;51.614;5.530;2024-02-14T12:22:40;101468.78;;;11.13;100.00
59789;BME280;47353;51.614;5.530;2024-02-14T12:25:08;101459.44;;;11.29;100.00
59789;BME280;47353;51.614;5.530;2024-02-14T12:27:36;101456.31;;;11.16;100.00
59789;BME280;47353;51.614;5.530;2024-02-14T12:30:06;101466.63;;;11.25;100.00
59789;BME280;47353;51.614;5.530;2024-02-14T12:32:32;101472.41;;;11.19;100.00
59789;BME280;47353;51.614;5.530;2024-02-14T12:34:58;101457.16;;;11.21;100.00
59789;BME280;47353;51.614;5.530;2024-02-14T12:37:24;101460.16;;;11.10;100.00
59789;BME280;47353;51.614;5.530;2024-02-14T12:39:50;101464.88;;;11.14;100.00
59789;BME280;47353;51.614;5.530;2024-02-14T12:42:15;101458.34;;;10.94;100.00
59789;BME280;47353;51.614;5.530;2024-02-14T12:44:43;101464.50;;;11.01;100.00
59789;BME280;47353;51.614;5.530;2024-02-14T12:47:08;101453.38;;;10.96;100.00